Time;durP1;ratioP1;P1;durP2;ratioP2;P2;SDS_P1;SDS_P2;PMS_P1;PMS_P2;Temp;Humidity;BMP_temperature;BMP_pressure;BME280_temperature;BME280_humidity;BME280_pressure;Samples;Min_cycle;Max_cycle;Signal;HPM_P1;HPM_P2
2021/09/30 00:01:56;;;;;;;22.60;16.73;;;;;;;5.23;76.69;102443.86;1514956;93;21643;-77
2021/09/30 00:04:22;;;;;;;24.18;16.90;;;;;;;5.19;76.86;102444.30;1531942;92;21075;-77
2021/09/30 00:06:49;;;;;;;26.05;16.97;;;;;;;5.18;77.08;102443.04;1532255;92;21300;-77
2021/09/30 00:09:16;;;;;;;21.70;15.72;;;;;;;5.17;77.12;102436.95;1529745;92;21337;-76
2021/09/30 00:11:48;;;;;;;22.98;15.88;;;;;;;5.18;77.26;102442.59;1561504;90;21105;-77
2021/09/30 00:14:38;;;;;;;26.70;16.80;;;;;;;5.16;77.27;102439.59;1573358;89;21125;-77
2021/09/30 00:35:54;;;;;;;19.12;13.93;;;;;;;5.03;77.47;102451.81;1571711;89;21120;-76
2021/09/30 00:41:17;;;;;;;;;;;;;;;5.03;77.49;102452.26;1574325;90;21027;-76
2021/09/30 00:49:08;;;;;;;16.82;13.13;;;;;;;4.92;77.36;102455.78;1563625;90;21471;-76
2021/09/30 00:51:38;;;;;;;20.55;13.08;;;;;;;4.90;77.58;102455.37;1579145;89;21017;-76
2021/09/30 01:47:10;;;;;;;23.12;14.18;;;;;;;4.30;77.40;102461.75;1536746;92;21120;-77
2021/09/30 01:52:52;;;;;;;21.50;14.83;;;;;;;4.29;77.57;102459.14;1534851;91;21555;-76
2021/09/30 02:26:07;;;;;;;18.87;13.43;;;;;;;4.11;78.73;102470.47;1572726;90;21159;-76
2021/09/30 02:27:49;;;;;;;20.68;15.00;;;;;;;4.14;78.54;102465.28;1527071;90;21740;-76
2021/09/30 02:39:49;;;;;;;19.42;14.25;;;;;;;3.95;77.36;102471.80;1572581;90;21232;-77
2021/09/30 03:00:43;;;;;;;24.40;15.80;;;;;;;3.72;77.49;102484.84;1519896;92;21723;-76
2021/09/30 03:03:11;;;;;;;22.62;16.17;;;;;;;3.67;77.37;102484.43;1517180;92;20978;-75
2021/09/30 03:05:40;;;;;;;21.52;14.30;;;;;;;3.62;77.49;102481.81;1520292;92;21683;-77
2021/09/30 03:08:07;;;;;;;22.48;15.85;;;;;;;3.58;77.57;102485.71;1523945;92;21155;-76
2021/09/30 03:10:34;;;;;;;24.25;15.15;;;;;;;3.56;77.69;102488.73;1555475;90;21196;-76
2021/09/30 03:13:01;;;;;;;17.45;14.20;;;;;;;3.55;77.85;102491.77;1557521;89;21009;-77
2021/09/30 03:15:38;;;;;;;17.00;12.95;;;;;;;3.53;77.93;102493.09;1555792;90;21007;-76
2021/09/30 03:21:05;;;;;;;23.25;13.78;;;;;;;3.50;77.83;102493.52;1531636;90;21050;-76
2021/09/30 03:23:21;;;;;;;21.70;13.00;;;;;;;3.47;77.78;102494.82;1555714;90;21139;-76
2021/09/30 03:25:50;;;;;;;20.48;13.62;;;;;;;3.42;77.64;102497.38;1522000;92;21534;-77
2021/09/30 03:28:19;;;;;;;19.92;13.78;;;;;;;3.36;77.61;102492.62;1529237;91;21381;-77
2021/09/30 03:30:46;;;;;;;18.80;13.72;;;;;;;3.29;77.79;102490.06;1525188;92;21826;-76
2021/09/30 03:33:12;;;;;;;18.85;13.95;;;;;;;3.27;77.97;102497.41;1526043;92;21035;-76
2021/09/30 03:35:41;;;;;;;23.67;14.80;;;;;;;3.25;78.08;102496.10;1532716;91;20974;-76
2021/09/30 03:38:09;;;;;;;20.57;14.03;;;;;;;3.24;78.22;102499.55;1534431;91;21085;-76
2021/09/30 03:40:36;;;;;;;21.17;12.93;;;;;;;3.26;78.32;102497.81;1535236;91;21638;-76
2021/09/30 03:43:04;;;;;;;31.17;15.95;;;;;;;3.25;78.56;102497.40;1513089;93;21158;-77
2021/09/30 03:45:33;;;;;;;26.05;17.35;;;;;;;3.25;78.73;102494.80;1534823;93;21563;-77
2021/09/30 03:48:09;;;;;;;25.50;17.35;;;;;;;3.25;78.69;102503.88;1526556;92;21138;-76
2021/09/30 03:50:46;;;;;;;24.57;16.37;;;;;;;3.24;78.54;102506.02;1544619;91;20951;-78
2021/09/30 04:00:38;;;;;;;34.65;23.40;;;;;;;3.24;78.80;102511.65;1572985;90;21171;-77
2021/09/30 04:03:05;;;;;;;38.98;23.50;;;;;;;3.26;78.87;102512.08;1573154;89;21477;-77
2021/09/30 04:05:34;;;;;;;34.20;23.98;;;;;;;3.32;78.96;102506.05;1571844;89;21772;-75
2021/09/30 04:08:02;;;;;;;31.75;23.12;;;;;;;3.36;78.95;102519.86;1535159;92;21197;-75
2021/09/30 04:10:30;;;;;;;34.90;23.87;;;;;;;3.39;78.84;102520.73;1533052;91;21010;-82
2021/09/30 04:12:58;;;;;;;34.00;21.17;;;;;;;3.41;78.62;102514.27;1534326;92;21877;-82
2021/09/30 04:15:24;;;;;;;33.35;19.52;;;;;;;3.41;78.29;102519.45;1536296;92;21589;-85
2021/09/30 04:17:52;;;;;;;31.85;20.12;;;;;;;3.40;78.01;102516.41;1535503;91;21041;-82
2021/09/30 04:20:19;;;;;;;27.80;18.00;;;;;;;3.39;77.83;102516.84;1536350;92;21863;-83
2021/09/30 04:22:54;;;;;;;27.25;16.95;;;;;;;3.37;77.82;102519.87;1573180;90;20955;-88
2021/09/30 04:25:22;;;;;;;20.75;15.75;;;;;;;3.35;77.83;102519.00;1570317;90;21017;-84
2021/09/30 04:27:50;;;;;;;26.00;20.17;;;;;;;3.36;77.91;102525.94;1570416;90;20991;-82
2021/09/30 04:30:17;;;;;;;22.13;14.60;;;;;;;3.38;78.00;102528.09;1569279;90;20921;-85
2021/09/30 04:32:54;;;;;;;23.77;16.67;;;;;;;3.41;78.20;102523.34;1571443;89;21238;-85
2021/09/30 04:35:21;;;;;;;28.98;20.72;;;;;;;3.47;78.39;102529.83;1570307;90;21144;-81
2021/09/30 04:37:48;;;;;;;21.30;17.30;;;;;;;3.53;78.46;102537.19;1571384;89;21606;-84
2021/09/30 04:40:15;;;;;;;27.60;18.98;;;;;;;3.80;78.91;102544.94;1569761;89;21140;-84
2021/09/30 04:42:42;;;;;;;33.40;15.95;;;;;;;4.34;79.05;102546.58;1571511;89;21153;-84
2021/09/30 04:45:10;;;;;;;23.07;15.00;;;;;;;5.02;78.54;102546.27;1572866;90;22093;-83
2021/09/30 04:47:38;;;;;;;27.73;14.40;;;;;;;5.73;77.48;102541.86;1580882;88;21075;-74
2021/09/30 04:50:14;;;;;;;18.52;14.45;;;;;;;6.45;76.42;102541.17;1571606;90;20971;-75
2021/09/30 04:52:41;;;;;;;26.15;14.75;;;;;;;7.02;74.17;102541.27;1573974;90;21057;-76
2021/09/30 04:55:09;;;;;;;26.45;15.68;;;;;;;7.26;72.35;102539.20;1570919;89;22439;-74
2021/09/30 04:57:37;;;;;;;34.73;15.18;;;;;;;7.28;71.00;102536.13;1571773;90;21174;-82
2021/09/30 05:00:06;;;;;;;23.50;16.45;;;;;;;7.16;70.22;102535.88;1536330;91;21511;-77
2021/09/30 05:02:49;;;;;;;;;;;;;;;7.03;69.90;102537.80;1536926;92;21062;-82
2021/09/30 05:05:17;;;;;;;11.12;7.40;;;;;;;6.92;70.16;102540.14;1535941;92;20207;-82
2021/09/30 05:07:44;;;;;;;24.85;14.83;;;;;;;6.83;70.45;102542.44;1514163;92;21057;-82
2021/09/30 05:10:13;;;;;;;25.62;13.72;;;;;;;6.79;70.82;102549.42;1516674;93;21198;-80
2021/09/30 05:12:41;;;;;;;13.90;7.87;;;;;;;6.78;71.04;102546.83;1535508;92;21589;-81
2021/09/30 05:15:10;;;;;;;15.23;7.97;;;;;;;6.84;71.06;102550.66;1537227;91;21094;-83
2021/09/30 05:17:39;;;;;;;8.93;7.15;;;;;;;6.92;71.23;102550.12;1534447;91;21034;-82
2021/09/30 05:20:10;;;;;;;20.72;10.85;;;;;;;7.23;71.60;102552.30;1535286;92;21729;-81
2021/09/30 05:22:38;;;;;;;16.42;8.65;;;;;;;7.50;71.09;102551.45;1535739;92;21842;-80
2021/09/30 05:25:06;;;;;;;11.70;7.53;;;;;;;7.66;70.41;102555.08;1536590;92;21120;-82
2021/09/30 05:27:35;;;;;;;17.17;7.80;;;;;;;7.73;69.49;102561.06;1570841;89;21084;-82
2021/09/30 05:30:02;;;;;;;15.10;8.48;;;;;;;7.85;69.11;102563.48;1573523;90;21240;-82
2021/09/30 05:32:31;;;;;;;19.20;8.75;;;;;;;8.29;69.20;102559.63;1573858;90;20955;-80
2021/09/30 05:35:00;;;;;;;14.87;8.43;;;;;;;8.96;68.38;102561.36;1572509;89;21606;-81
2021/09/30 05:37:32;;;;;;;18.57;8.90;;;;;;;9.72;66.98;102557.83;1575315;90;21125;-82
2021/09/30 05:39:59;;;;;;;15.43;8.20;;;;;;;10.58;63.68;102562.08;1572142;90;21189;-84
2021/09/30 05:42:29;;;;;;;16.00;8.40;;;;;;;11.44;61.69;102560.77;1571904;90;21076;-81
2021/09/30 05:45:06;;;;;;;15.20;7.87;;;;;;;12.23;59.04;102562.50;1573234;89;21085;-81
2021/09/30 05:47:25;;;;;;;11.63;8.25;;;;;;;12.97;56.98;102569.42;1572088;89;21740;-80
2021/09/30 05:49:52;;;;;;;11.00;8.28;;;;;;;13.68;55.08;102560.88;1573561;89;21074;-80
2021/09/30 05:52:25;;;;;;;12.50;8.60;;;;;;;14.30;52.66;102569.18;1536167;92;21152;-80
2021/09/30 05:54:56;;;;;;;13.15;8.15;;;;;;;14.95;50.99;102557.48;1534420;91;21014;-80
2021/09/30 05:57:25;;;;;;;11.97;8.50;;;;;;;15.63;49.95;102565.16;1550732;91;21618;-81
2021/09/30 05:59:51;;;;;;;13.65;8.18;;;;;;;16.21;48.00;102560.02;1579716;90;21508;-77
2021/09/30 06:10:50;;;;;;;13.70;8.83;;;;;;;18.07;42.70;102561.47;1554740;89;21176;-80
2021/09/30 06:13:16;;;;;;;15.83;9.38;;;;;;;18.47;41.28;102564.33;1571385;89;21704;-79
2021/09/30 06:15:43;;;;;;;12.50;8.73;;;;;;;18.70;40.38;102564.69;1574488;89;21723;-81
2021/09/30 06:18:11;;;;;;;18.85;9.60;;;;;;;19.05;40.08;102564.66;1576555;89;21124;-79
2021/09/30 06:20:41;;;;;;;12.75;8.83;;;;;;;19.39;38.77;102561.11;1571414;90;21118;-80
2021/09/30 06:23:09;;;;;;;9.80;7.83;;;;;;;19.75;38.59;102560.11;1574517;90;21132;-79
2021/09/30 06:25:36;;;;;;;10.55;8.40;;;;;;;20.14;37.90;102563.62;1570469;90;21159;-81
2021/09/30 06:28:05;;;;;;;18.32;7.78;;;;;;;20.41;37.08;102559.50;1570067;90;20991;-79
2021/09/30 06:30:32;;;;;;;13.85;8.33;;;;;;;20.70;36.70;102559.66;1571999;89;20983;-79
2021/09/30 06:33:00;;;;;;;10.23;9.03;;;;;;;20.99;36.09;102559.84;1569322;90;21090;-81
2021/09/30 06:35:45;;;;;;;15.88;7.58;;;;;;;21.19;35.30;102547.66;1571145;89;21104;-81
2021/09/30 06:38:11;;;;;;;13.38;7.95;;;;;;;21.46;34.62;102559.48;1571537;89;21540;-82
2021/09/30 06:40:39;;;;;;;9.68;7.87;;;;;;;21.78;34.17;102556.17;1570420;90;20990;-79
2021/09/30 06:43:06;;;;;;;13.98;8.30;;;;;;;22.09;33.07;102557.31;1572182;89;21117;-81
2021/09/30 06:45:44;;;;;;;9.30;7.25;;;;;;;22.24;31.95;102560.16;1570847;90;21152;-79
2021/09/30 06:48:30;;;;;;;14.43;8.13;;;;;;;22.37;31.93;102555.16;1571567;90;21078;-79
2021/09/30 06:53:48;;;;;;;11.03;7.20;;;;;;;22.76;30.97;102557.30;1816375;79;22586;-78
2021/09/30 06:56:17;;;;;;;11.12;7.12;;;;;;;22.88;30.91;102559.98;1789609;80;20931;-84
2021/09/30 06:59:01;;;;;;;13.55;7.60;;;;;;;23.03;30.99;102558.72;1789588;79;22073;-81
2021/09/30 07:01:42;;;;;;;14.25;7.33;;;;;;;23.21;30.53;102553.70;1789681;80;20904;-82
2021/09/30 07:04:27;;;;;;;9.63;7.28;;;;;;;23.37;30.11;102556.79;1789700;79;20919;-83
2021/09/30 07:06:59;;;;;;;11.38;6.95;;;;;;;23.55;30.01;102558.91;1786302;79;20973;-83
2021/09/30 07:09:30;;;;;;;12.90;7.37;;;;;;;23.70;29.39;102550.91;1789688;80;20888;-82
2021/09/30 07:11:59;;;;;;;11.45;6.22;;;;;;;23.77;28.83;102557.46;1789739;80;21168;-82
2021/09/30 07:14:28;;;;;;;8.58;5.75;;;;;;;23.79;27.71;102554.66;1789719;80;20911;-79
2021/09/30 07:16:54;;;;;;;7.03;5.30;;;;;;;23.86;28.31;102554.48;1789414;80;20844;-80
2021/09/30 07:19:21;;;;;;;5.85;4.97;;;;;;;23.97;28.19;102564.28;1789745;80;20884;-81
2021/09/30 07:21:49;;;;;;;9.20;6.05;;;;;;;24.06;27.40;102555.94;1789610;80;20880;-81
2021/09/30 07:24:15;;;;;;;6.95;4.85;;;;;;;24.16;27.67;102560.84;1789644;80;21930;-81
2021/09/30 07:26:42;;;;;;;5.80;5.05;;;;;;;24.29;27.01;102560.12;1789541;80;20923;-79
2021/09/30 07:29:09;;;;;;;4.37;3.98;;;;;;;24.44;27.10;102562.45;1789777;80;21338;-81
2021/09/30 07:31:36;;;;;;;7.62;4.08;;;;;;;24.57;26.96;102559.07;1789406;80;20891;-81
2021/09/30 07:34:03;;;;;;;7.15;4.20;;;;;;;24.61;25.03;102558.66;1789540;80;20919;-81
2021/09/30 07:36:32;;;;;;;8.78;4.58;;;;;;;24.52;25.87;102555.45;1789496;80;21212;-80
2021/09/30 07:38:59;;;;;;;7.15;4.03;;;;;;;24.52;26.07;102548.75;1789401;80;20892;-82
2021/09/30 07:41:26;;;;;;;7.22;3.58;;;;;;;24.57;25.91;102553.70;1789463;80;20923;-82
2021/09/30 07:43:53;;;;;;;9.73;5.37;;;;;;;24.49;24.96;102557.05;1789455;80;20987;-80
2021/09/30 07:46:20;;;;;;;7.75;4.17;;;;;;;24.40;25.36;102554.66;1789615;80;20967;-80
2021/09/30 07:48:47;;;;;;;7.62;4.12;;;;;;;24.40;25.02;102558.69;1789488;80;22006;-80
2021/09/30 07:51:14;;;;;;;5.05;3.55;;;;;;;24.39;26.04;102557.00;1789547;80;20932;-79
2021/09/30 07:53:41;;;;;;;8.18;4.10;;;;;;;24.37;25.67;102553.60;1785152;80;20924;-81
2021/09/30 07:56:08;;;;;;;10.38;4.20;;;;;;;24.45;25.86;102542.18;1784537;80;20940;-83
2021/09/30 07:58:34;;;;;;;8.75;3.80;;;;;;;24.59;25.09;102546.38;1784632;80;20885;-80
2021/09/30 08:01:01;;;;;;;7.12;3.37;;;;;;;24.81;25.07;102538.55;1784460;80;21535;-70
2021/09/30 08:03:29;;;;;;;9.45;3.58;;;;;;;24.97;24.56;102542.06;1784226;80;20960;-68
2021/09/30 08:05:58;;;;;;;4.37;2.80;;;;;;;25.08;24.27;102539.24;1783774;80;20857;-68
2021/09/30 08:08:25;;;;;;;12.13;3.95;;;;;;;25.14;23.71;102537.31;1783990;80;21358;-68
2021/09/30 08:10:52;;;;;;;7.00;3.42;;;;;;;25.15;23.54;102520.23;1783845;80;21519;-69
2021/09/30 08:13:21;;;;;;;6.92;2.75;;;;;;;25.09;23.66;102526.66;1783862;80;21170;-71
2021/09/30 08:15:48;;;;;;;5.08;2.40;;;;;;;25.14;23.15;102522.55;1784017;80;20932;-69
2021/09/30 08:18:14;;;;;;;7.80;2.47;;;;;;;25.18;22.72;102519.94;1784151;80;20868;-69
2021/09/30 08:20:41;;;;;;;7.58;2.10;;;;;;;25.10;23.09;102525.19;1783779;80;21428;-68
2021/09/30 08:23:11;;;;;;;3.65;1.90;;;;;;;25.14;22.92;102529.26;1783859;80;20895;-71
2021/09/30 08:25:39;;;;;;;4.37;2.37;;;;;;;25.15;22.10;102509.99;1783517;80;21102;-68
2021/09/30 08:28:06;;;;;;;6.45;2.55;;;;;;;25.15;22.45;102527.44;1783724;80;20915;-67
2021/09/30 08:30:34;;;;;;;4.15;2.42;;;;;;;25.20;23.20;102519.84;1783872;80;20969;-69
2021/09/30 08:33:00;;;;;;;3.72;2.22;;;;;;;25.40;22.24;102524.20;1784078;80;20873;-69
2021/09/30 08:35:27;;;;;;;3.70;2.42;;;;;;;25.36;21.57;102521.44;1783828;80;21428;-68
2021/09/30 08:37:54;;;;;;;5.47;2.20;;;;;;;25.35;22.03;102518.92;1784028;80;21512;-69
2021/09/30 08:40:21;;;;;;;3.10;2.50;;;;;;;25.41;22.97;102515.63;1784078;80;20915;-68
2021/09/30 08:42:48;;;;;;;5.17;2.52;;;;;;;25.57;22.25;102523.12;1783872;80;21461;-69
2021/09/30 08:45:20;;;;;;;4.47;2.55;;;;;;;25.66;22.23;102515.54;1783773;80;21369;-68
2021/09/30 08:47:48;;;;;;;10.45;2.72;;;;;;;25.70;21.86;102510.70;1784079;80;20931;-69
2021/09/30 08:50:14;;;;;;;6.33;3.47;;;;;;;25.82;22.59;102510.39;1783751;80;21284;-68
2021/09/30 08:52:41;;;;;;;3.05;2.42;;;;;;;26.00;22.89;102510.50;1783736;80;21429;-68
2021/09/30 08:55:09;;;;;;;3.00;2.25;;;;;;;26.18;22.58;102513.76;1783870;80;20884;-68
2021/09/30 08:57:37;;;;;;;6.70;2.67;;;;;;;26.32;21.89;102501.64;1783735;80;20928;-68
2021/09/30 09:00:09;;;;;;;5.55;2.42;;;;;;;26.43;21.03;102510.35;1783859;80;20967;-68
2021/09/30 09:02:49;;;;;;;4.30;2.22;;;;;;;26.33;20.69;102500.16;1783924;80;21138;-67
2021/09/30 09:05:16;;;;;;;4.42;2.75;;;;;;;26.18;21.66;102489.55;1782728;80;20924;-67
2021/09/30 09:08:01;;;;;;;5.28;2.40;;;;;;;26.20;21.83;102488.91;1783821;80;20897;-70
2021/09/30 09:10:37;;;;;;;4.60;2.70;;;;;;;26.14;21.88;102479.58;1783743;80;21563;-77
2021/09/30 09:13:13;;;;;;;5.20;2.83;;;;;;;26.22;22.38;102485.06;1783724;80;20852;-78
2021/09/30 09:15:57;;;;;;;5.58;2.60;;;;;;;26.29;21.82;102482.62;1783809;80;20944;-75
2021/09/30 09:18:39;;;;;;;6.45;2.62;;;;;;;26.32;21.65;102483.66;1783809;80;21049;-75
2021/09/30 09:21:14;;;;;;;3.35;3.05;;;;;;;26.47;21.66;102480.80;1783826;80;21341;-74
2021/09/30 09:23:56;;;;;;;4.75;2.30;;;;;;;26.55;21.03;102473.84;1784867;80;20979;-74
2021/09/30 09:26:32;;;;;;;7.62;2.27;;;;;;;26.56;22.19;102471.02;1784593;80;20947;-74
2021/09/30 09:29:10;;;;;;;6.47;2.50;;;;;;;26.55;21.62;102465.77;1784087;80;21795;-76
2021/09/30 09:31:44;;;;;;;2.17;1.82;;;;;;;26.43;21.64;102473.19;1784031;80;20880;-75
2021/09/30 09:34:41;;;;;;;5.40;2.20;;;;;;;26.21;20.85;102474.45;1783823;80;20947;-76
2021/09/30 09:37:43;;;;;;;5.83;2.80;;;;;;;26.04;20.65;102470.22;1780297;80;21092;-77
2021/09/30 09:39:59;;;;;;;4.90;1.98;;;;;;;25.90;21.13;102469.38;1776806;80;20884;-71
2021/09/30 09:42:30;;;;;;;2.50;1.80;;;;;;;25.92;21.04;102461.98;1783707;80;21813;-72
2021/09/30 09:45:01;;;;;;;2.62;1.92;;;;;;;25.97;20.96;102467.79;1783976;80;21365;-70
2021/09/30 09:47:36;;;;;;;4.42;2.02;;;;;;;26.07;20.39;102463.70;1783599;80;20885;-72
2021/09/30 09:50:18;;;;;;;5.47;1.70;;;;;;;26.15;20.67;102452.21;1783999;80;20912;-71
2021/09/30 09:52:55;;;;;;;6.55;2.05;;;;;;;26.22;19.52;102464.05;1783580;80;21065;-75
2021/09/30 09:55:29;;;;;;;7.67;1.60;;;;;;;26.24;20.49;102449.45;1783863;80;21521;-75
2021/09/30 09:58:04;;;;;;;6.35;1.85;;;;;;;26.45;20.19;102449.16;1783850;80;21322;-74
2021/09/30 10:00:38;;;;;;;7.87;1.92;;;;;;;26.57;20.40;102456.58;1774737;80;20964;-74
2021/09/30 10:03:28;;;;;;;2.77;1.70;;;;;;;26.67;20.62;102454.63;1783004;80;20931;-76
2021/09/30 10:05:55;;;;;;;2.80;1.70;;;;;;;26.75;20.19;102447.16;1784148;80;20936;-76
2021/09/30 10:08:23;;;;;;;2.02;1.70;;;;;;;26.80;19.95;102462.34;1783623;80;21143;-77
2021/09/30 10:10:53;;;;;;;2.67;1.92;;;;;;;26.93;20.32;102453.03;1783872;80;21034;-76
2021/09/30 10:13:21;;;;;;;4.40;2.08;;;;;;;26.86;19.75;102459.54;1783628;80;20951;-77
2021/09/30 10:15:53;;;;;;;3.10;2.12;;;;;;;26.71;19.90;102453.84;1783623;80;20896;-76
2021/09/30 10:18:27;;;;;;;6.20;2.05;;;;;;;26.62;20.10;102444.00;1783840;80;20856;-77
2021/09/30 10:20:57;;;;;;;5.47;2.30;;;;;;;26.65;19.80;102442.34;1783933;80;20920;-75
2021/09/30 10:23:30;;;;;;;4.33;1.70;;;;;;;26.55;19.82;102438.86;1783551;80;20888;-75
2021/09/30 10:25:58;;;;;;;;;;;;;;;26.51;20.59;102445.03;1786198;80;20856;-76
2021/09/30 10:28:25;;;;;;;6.17;1.80;;;;;;;26.57;20.26;102436.86;1783590;80;20088;-76
2021/09/30 10:30:53;;;;;;;7.22;2.10;;;;;;;26.56;20.41;102428.45;1783984;80;20928;-77
2021/09/30 10:33:24;;;;;;;4.17;2.45;;;;;;;26.46;19.73;102438.77;1783695;80;21106;-78
2021/09/30 10:35:52;;;;;;;5.65;2.45;;;;;;;26.47;20.12;102433.72;1776813;80;20935;-76
2021/09/30 10:38:25;;;;;;;2.85;1.95;;;;;;;26.51;20.21;102436.13;1783830;80;20920;-74
2021/09/30 10:41:10;;;;;;;6.03;2.17;;;;;;;26.43;20.34;102443.09;1784149;80;20947;-74
2021/09/30 10:43:42;;;;;;;5.25;1.92;;;;;;;26.36;20.16;102437.97;1783231;80;21025;-74
2021/09/30 10:46:26;;;;;;;5.58;2.25;;;;;;;26.24;20.68;102437.35;1783966;80;21067;-74
2021/09/30 10:48:54;;;;;;;6.83;2.15;;;;;;;26.29;21.05;102436.05;1783514;80;21401;-75
2021/09/30 10:51:22;;;;;;;4.90;1.55;;;;;;;26.52;20.88;102431.07;1784009;80;21018;-75
2021/09/30 10:53:54;;;;;;;41.65;8.38;;;;;;;26.58;20.32;102434.03;1783454;80;20908;-75
2021/09/30 10:56:38;;;;;;;8.13;3.83;;;;;;;26.63;20.75;102436.26;1783837;80;20952;-75
2021/09/30 10:59:13;;;;;;;11.78;4.05;;;;;;;26.65;20.47;102439.14;1783390;80;21139;-76
2021/09/30 11:01:53;;;;;;;37.98;6.95;;;;;;;26.52;20.00;102437.30;1781904;80;21468;-73
2021/09/30 11:04:21;;;;;;;8.70;2.20;;;;;;;26.36;20.15;102434.45;1783314;80;21051;-74
2021/09/30 11:07:17;;;;;;;3.15;2.25;;;;;;;26.35;20.56;102436.80;1783626;80;20884;-76
2021/09/30 11:10:21;;;;;;;52.40;8.63;;;;;;;26.39;20.46;102437.69;1783915;80;20946;-79
2021/09/30 11:13:22;;;;;;;4.25;1.82;;;;;;;26.38;20.34;102435.14;1783627;80;21143;-74
2021/09/30 11:16:12;;;;;;;8.58;3.25;;;;;;;26.19;20.54;102436.09;1784010;80;20904;-76
2021/09/30 11:18:57;;;;;;;2.58;1.82;;;;;;;25.98;20.69;102433.17;1783536;80;21401;-76
2021/09/30 11:21:37;;;;;;;4.45;2.02;;;;;;;25.79;20.64;102438.59;1783636;80;21022;-75
2021/09/30 11:24:23;;;;;;;19.20;3.20;;;;;;;25.49;20.52;102422.25;1783264;79;20923;-74
2021/09/30 11:26:58;;;;;;;4.53;2.00;;;;;;;25.20;20.99;102430.72;1784130;80;21141;-75
2021/09/30 11:29:26;;;;;;;4.17;2.25;;;;;;;24.82;21.32;102427.55;1783738;80;20955;-76
2021/09/30 11:32:02;;;;;;;17.50;2.92;;;;;;;24.48;21.71;102427.09;1783635;80;21489;-77
2021/09/30 11:34:35;;;;;;;4.60;2.10;;;;;;;24.12;21.91;102428.05;1783994;80;20892;-76
2021/09/30 11:37:24;;;;;;;8.65;2.60;;;;;;;23.73;22.77;102421.19;1783111;80;20904;-75
2021/09/30 11:39:51;;;;;;;4.17;1.98;;;;;;;23.27;23.12;102423.33;1784083;80;21307;-75
2021/09/30 11:42:21;;;;;;;12.75;3.12;;;;;;;22.70;23.73;102421.41;1783931;80;20927;-76
2021/09/30 11:45:00;;;;;;;6.53;2.20;;;;;;;22.15;24.41;102425.39;1783814;80;20915;-76
2021/09/30 11:47:30;;;;;;;3.52;2.40;;;;;;;21.62;25.06;102426.50;1783928;80;20900;-77
2021/09/30 11:49:58;;;;;;;3.50;2.10;;;;;;;21.09;26.04;102421.62;1784144;80;20916;-75
2021/09/30 11:52:24;;;;;;;5.72;2.10;;;;;;;20.67;26.26;102417.22;1783748;80;21023;-75
2021/09/30 11:54:53;;;;;;;6.12;2.02;;;;;;;20.26;27.09;102410.92;1776715;80;20928;-75
2021/09/30 11:57:24;;;;;;;4.58;2.80;;;;;;;19.87;27.75;102415.46;1775342;80;21019;-75
2021/09/30 12:00:07;;;;;;;4.58;1.87;;;;;;;19.50;28.38;102410.05;1775442;80;20975;-74
2021/09/30 12:02:37;;;;;;;4.10;1.70;;;;;;;19.15;28.28;102403.15;1774975;80;20971;-75
2021/09/30 12:05:04;;;;;;;4.03;2.02;;;;;;;18.80;28.26;102409.02;1775549;80;22165;-75
2021/09/30 12:07:31;;;;;;;5.05;1.90;;;;;;;18.53;28.92;102401.02;1775217;80;21018;-75
2021/09/30 12:10:00;;;;;;;6.83;1.80;;;;;;;18.29;29.07;102391.51;1775548;80;20908;-76
2021/09/30 12:12:34;;;;;;;5.62;2.20;;;;;;;18.05;29.61;102398.75;1775283;80;20860;-75
2021/09/30 12:15:01;;;;;;;2.92;2.33;;;;;;;17.83;29.44;102397.06;1775006;80;21042;-76
2021/09/30 12:17:35;;;;;;;2.17;1.98;;;;;;;17.61;30.16;102401.88;1775339;80;21425;-75
2021/09/30 12:20:07;;;;;;;2.75;2.12;;;;;;;17.44;30.36;102388.79;1775203;80;20905;-75
2021/09/30 12:22:41;;;;;;;5.85;2.40;;;;;;;17.28;30.37;102393.33;1773974;80;20948;-74
2021/09/30 12:25:15;;;;;;;3.83;2.37;;;;;;;17.07;30.80;102388.81;1775415;80;20857;-76
2021/09/30 12:27:47;;;;;;;3.40;2.15;;;;;;;16.92;30.84;102391.44;1779449;80;20979;-79
2021/09/30 12:30:20;;;;;;;4.97;2.47;;;;;;;16.76;30.12;102388.80;1775292;80;21328;-74
2021/09/30 12:32:50;;;;;;;5.40;2.12;;;;;;;16.60;31.24;102387.10;1775392;80;20857;-74
2021/09/30 12:35:21;;;;;;;6.95;1.92;;;;;;;16.45;31.01;102391.02;1775382;80;20964;-74
2021/09/30 12:37:54;;;;;;;4.03;2.40;;;;;;;16.35;31.42;102389.34;1775531;80;20900;-73
2021/09/30 12:40:27;;;;;;;3.70;1.87;;;;;;;16.25;31.39;102383.31;1775406;80;21578;-74
2021/09/30 12:43:10;;;;;;;;;;;;;;;16.15;31.43;102386.48;1777875;80;20881;-75
2021/09/30 12:45:41;;;;;;;3.12;1.98;;;;;;;16.07;32.08;102383.39;1775239;80;20227;-76
2021/09/30 12:48:13;;;;;;;6.85;2.27;;;;;;;15.90;31.70;102374.22;1775524;80;20841;-78
2021/09/30 12:50:47;;;;;;;4.85;2.08;;;;;;;15.90;31.70;102374.22;1775228;80;20888;-72
2021/09/30 12:53:17;;;;;;;2.52;1.80;;;;;;;15.82;31.89;102383.88;1776628;80;20995;-76
2021/09/30 12:55:44;;;;;;;3.33;2.08;;;;;;;15.64;31.80;102379.08;1774842;80;21133;-75
2021/09/30 12:58:37;;;;;;;2.30;1.75;;;;;;;15.64;31.80;102379.08;1775175;80;20999;-74
2021/09/30 13:01:27;;;;;;;2.20;1.87;;;;;;;15.51;31.95;102377.54;1775331;80;20925;-75
2021/09/30 13:04:22;;;;;;;2.58;2.37;;;;;;;15.51;31.95;102377.54;1775293;80;20964;-75
2021/09/30 13:06:55;;;;;;;;;;;;;;;15.42;32.24;102375.86;1778310;80;20892;-73
2021/09/30 13:09:34;;;;;;;4.20;2.37;;;;;;;15.23;32.36;102375.95;1775385;80;21146;-73
2021/09/30 13:12:14;;;;;;;4.53;2.27;;;;;;;15.23;32.36;102375.95;1775552;80;20876;-74
2021/09/30 13:14:46;;;;;;;5.20;2.85;;;;;;;15.09;32.52;102366.94;1775250;80;20963;-72
2021/09/30 13:17:16;;;;;;;4.15;1.85;;;;;;;15.04;32.83;102368.97;1775385;80;20920;-71
2021/09/30 13:20:09;;;;;;;6.12;2.12;;;;;;;15.04;32.83;102368.97;1775067;80;20948;-70
2021/09/30 13:22:41;;;;;;;2.00;1.80;;;;;;;14.98;33.34;102369.74;1778680;80;20888;-70
2021/09/30 13:25:15;;;;;;;4.40;2.10;;;;;;;14.93;33.37;102371.30;1775197;80;20970;-69
2021/09/30 13:27:46;;;;;;;5.17;1.90;;;;;;;14.87;33.77;102362.36;1775211;80;20996;-70
2021/09/30 13:30:21;;;;;;;4.87;2.12;;;;;;;14.82;33.67;102361.27;1775259;80;20921;-71
2021/09/30 13:32:50;;;;;;;3.92;2.62;;;;;;;14.77;34.01;102361.97;1775496;80;20885;-70
2021/09/30 13:35:18;;;;;;;5.87;2.67;;;;;;;14.73;34.32;102364.38;1775214;80;20884;-71
2021/09/30 13:37:46;;;;;;;5.05;2.40;;;;;;;14.68;34.35;102363.75;1775455;80;20944;-71
2021/09/30 13:40:13;;;;;;;4.30;2.92;;;;;;;14.63;34.45;102368.38;1775292;80;20877;-70
2021/09/30 13:42:40;;;;;;;2.52;2.20;;;;;;;14.56;34.61;102359.91;1775134;80;21003;-70
2021/09/30 13:45:12;;;;;;;4.95;2.85;;;;;;;14.51;34.62;102356.61;1775292;80;20912;-70
2021/09/30 13:47:39;;;;;;;6.95;2.77;;;;;;;14.45;34.83;102360.42;1775458;80;21131;-70
2021/09/30 13:50:11;;;;;;;5.17;2.50;;;;;;;14.39;34.54;102358.07;1775184;80;20924;-70
2021/09/30 13:52:38;;;;;;;7.05;2.80;;;;;;;14.34;34.69;102348.65;1775414;80;20912;-70
2021/09/30 13:55:06;;;;;;;3.67;2.98;;;;;;;14.30;35.25;102363.80;1779377;80;21469;-70
2021/09/30 13:57:34;;;;;;;4.58;2.37;;;;;;;14.25;35.50;102353.90;1783729;80;20948;-70
2021/09/30 14:00:04;;;;;;;5.37;2.65;;;;;;;14.20;35.09;102351.95;1783252;80;21562;-70
2021/09/30 14:02:31;;;;;;;6.42;2.60;;;;;;;14.14;35.43;102353.12;1783650;80;21006;-71
2021/09/30 14:04:59;;;;;;;3.70;2.15;;;;;;;14.09;35.69;102349.81;1783424;80;20884;-71
2021/09/30 14:07:26;;;;;;;6.30;2.20;;;;;;;14.04;35.68;102353.99;1783674;80;21318;-76
2021/09/30 14:09:53;;;;;;;6.75;2.45;;;;;;;14.00;35.77;102351.57;1784201;80;21135;-74
2021/09/30 14:12:20;;;;;;;6.12;2.87;;;;;;;13.95;36.04;102349.16;1783812;80;21181;-75
2021/09/30 14:14:49;;;;;;;3.70;2.72;;;;;;;13.91;36.69;102343.62;1783642;80;21461;-77
2021/09/30 14:17:15;;;;;;;6.33;3.47;;;;;;;13.86;37.21;102339.88;1783830;80;20901;-75
2021/09/30 14:19:42;;;;;;;6.08;3.10;;;;;;;13.81;37.03;102341.03;1784143;80;20970;-75
2021/09/30 14:22:10;;;;;;;5.45;3.37;;;;;;;13.75;37.16;102348.75;1783715;80;21421;-75
2021/09/30 14:24:37;;;;;;;4.05;3.45;;;;;;;13.69;37.52;102342.43;1784166;80;20916;-76
2021/09/30 14:27:05;;;;;;;9.40;4.15;;;;;;;13.64;37.46;102341.32;1783707;80;20911;-75